createdAt,value
2016-11-13T00:00:26.427Z,82.02
2016-11-13T00:01:26.442Z,82.12
2016-11-13T00:02:26.456Z,82.12
2016-11-13T00:03:26.472Z,82.12
2016-11-13T00:04:26.483Z,82.12
2016-11-13T00:05:26.486Z,82.21
2016-11-13T00:06:26.504Z,82.21
2016-11-13T00:07:26.506Z,82.21
2016-11-13T00:08:26.523Z,82.21
2016-11-13T00:09:26.539Z,82.31
2016-11-13T00:10:26.547Z,82.4
2016-11-13T00:11:26.560Z,82.4
2016-11-13T00:12:26.571Z,82.4
2016-11-13T00:13:26.586Z,82.4
2016-11-13T00:14:26.596Z,82.4
2016-11-13T00:15:26.608Z,82.31
2016-11-13T00:16:26.615Z,82.31
2016-11-13T00:17:26.632Z,82.21
2016-11-13T00:18:26.639Z,82.31
2016-11-13T00:19:26.658Z,82.4
2016-11-13T00:20:26.671Z,82.4
2016-11-13T00:21:26.678Z,82.31
2016-11-13T00:22:26.687Z,82.21
2016-11-13T00:23:26.704Z,82.21
2016-11-13T00:24:26.718Z,82.31
2016-11-13T00:25:26.724Z,82.31
2016-11-13T00:26:26.736Z,82.31
2016-11-13T00:27:26.749Z,82.31
2016-11-13T00:28:26.755Z,82.31
2016-11-13T00:29:26.774Z,82.4
2016-11-13T00:30:26.784Z,82.5
2016-11-13T00:31:26.790Z,82.4
2016-11-13T00:32:26.809Z,82.5
2016-11-13T00:33:26.815Z,82.5
2016-11-13T00:34:26.832Z,82.5
2016-11-13T00:35:26.841Z,82.59
2016-11-13T00:36:26.850Z,82.59
2016-11-13T00:37:26.860Z,82.59
2016-11-13T00:38:26.870Z,82.68
2016-11-13T00:39:26.882Z,82.78
2016-11-13T00:40:26.906Z,82.78
2016-11-13T00:41:26.913Z,82.78
2016-11-13T00:42:26.913Z,82.68
2016-11-13T00:43:26.929Z,82.68
2016-11-13T00:44:26.944Z,82.59
2016-11-13T00:45:26.957Z,82.68
2016-11-13T00:46:26.962Z,82.68
2016-11-13T00:47:26.977Z,82.78
2016-11-13T00:48:26.988Z,82.78
2016-11-13T00:49:27.001Z,82.68
2016-11-13T00:50:27.014Z,82.59
2016-11-13T00:51:27.022Z,82.68
2016-11-13T00:52:27.042Z,82.59
2016-11-13T00:53:27.048Z,82.68
2016-11-13T00:54:27.061Z,82.68
2016-11-13T00:55:27.070Z,82.78
2016-11-13T00:56:27.083Z,82.78
2016-11-13T00:57:27.098Z,82.87
2016-11-13T00:58:27.115Z,82.97
2016-11-13T00:59:27.121Z,82.97
2016-11-13T01:00:27.137Z,83.06
2016-11-13T01:01:27.144Z,82.97
2016-11-13T01:02:27.153Z,82.87
2016-11-13T01:03:27.168Z,82.87
2016-11-13T01:04:27.179Z,83.06
2016-11-13T01:05:27.189Z,83.06
2016-11-13T01:06:27.197Z,83.06
2016-11-13T01:07:27.214Z,83.06
2016-11-13T01:08:27.215Z,83.15
2016-11-13T01:09:27.235Z,83.06
2016-11-13T01:10:27.256Z,83.06
2016-11-13T01:11:27.250Z,83.06
2016-11-13T01:12:27.269Z,83.06
2016-11-13T01:13:27.277Z,83.15
2016-11-13T01:14:27.296Z,83.15
2016-11-13T01:15:27.310Z,83.06
2016-11-13T01:16:27.320Z,83.06
2016-11-13T01:17:27.331Z,83.06
2016-11-13T01:18:27.340Z,82.97
2016-11-13T01:19:27.354Z,82.97
2016-11-13T01:20:27.360Z,82.97
2016-11-13T01:21:27.379Z,82.97
2016-11-13T01:22:27.388Z,83.06
2016-11-13T01:23:27.394Z,82.97
2016-11-13T01:24:27.411Z,83.06
2016-11-13T01:25:27.424Z,83.06
2016-11-13T01:26:27.439Z,83.06
2016-11-13T01:27:27.445Z,83.06
2016-11-13T01:28:27.461Z,83.06
2016-11-13T01:29:27.472Z,83.15
2016-11-13T01:30:27.483Z,83.25
2016-11-13T01:31:27.494Z,83.25
2016-11-13T01:32:27.502Z,83.25
2016-11-13T01:33:27.520Z,83.25
2016-11-13T01:34:27.529Z,83.25
2016-11-13T01:35:27.570Z,83.25
2016-11-13T01:36:27.553Z,83.34
2016-11-13T01:37:27.560Z,83.34
2016-11-13T01:38:27.574Z,83.44
2016-11-13T01:39:27.587Z,83.44
2016-11-13T01:40:27.602Z,83.53
2016-11-13T01:41:27.608Z,83.44
2016-11-13T01:42:27.619Z,83.44
2016-11-13T01:43:27.633Z,83.34
2016-11-13T01:44:27.644Z,83.34
2016-11-13T01:45:27.656Z,83.44
2016-11-13T01:46:27.663Z,83.34
2016-11-13T01:47:27.681Z,83.15
2016-11-13T01:48:27.695Z,83.15
2016-11-13T01:49:27.700Z,83.25
2016-11-13T01:50:27.722Z,83.34
2016-11-13T01:51:27.725Z,83.34
2016-11-13T01:52:27.735Z,83.44
2016-11-13T01:53:27.751Z,83.53
2016-11-13T01:54:27.760Z,83.63
2016-11-13T01:55:27.770Z,83.72
2016-11-13T01:56:27.779Z,83.72
2016-11-13T01:57:27.799Z,83.72
2016-11-13T01:58:27.807Z,83.72
2016-11-13T01:59:27.817Z,83.72
2016-11-13T02:00:27.831Z,83.72
2016-11-13T02:01:27.831Z,83.72
2016-11-13T02:02:27.856Z,83.82
2016-11-13T02:03:27.857Z,83.91
2016-11-13T02:04:27.873Z,84.01
2016-11-13T02:05:27.891Z,84.01
2016-11-13T02:06:27.927Z,84.01
2016-11-13T02:07:27.912Z,84.01
2016-11-13T02:08:27.919Z,84.01
2016-11-13T02:09:27.934Z,84.1
2016-11-13T02:10:27.942Z,84.1
2016-11-13T02:11:27.960Z,84.2
2016-11-13T02:12:27.968Z,84.1
2016-11-13T02:13:27.973Z,84.1
2016-11-13T02:14:27.989Z,84.1
2016-11-13T02:15:28.002Z,84.1
2016-11-13T02:16:28.018Z,84.1
2016-11-13T02:17:28.024Z,84.2
2016-11-13T02:18:28.044Z,84.1
2016-11-13T02:19:28.052Z,84.1
2016-11-13T02:20:28.063Z,84.2
2016-11-13T02:21:28.075Z,84.29
2016-11-13T02:22:28.087Z,84.48
2016-11-13T02:23:28.093Z,84.48
2016-11-13T02:24:28.102Z,84.48
2016-11-13T02:25:28.122Z,84.48
2016-11-13T02:26:28.132Z,84.58
2016-11-13T02:27:28.137Z,84.48
2016-11-13T02:28:28.148Z,84.48
2016-11-13T02:29:28.168Z,84.48
2016-11-13T02:30:28.179Z,84.58
2016-11-13T02:31:28.187Z,84.67
2016-11-13T02:32:28.197Z,84.67
2016-11-13T02:33:28.211Z,84.67
2016-11-13T02:34:28.214Z,84.58
2016-11-13T02:35:28.230Z,84.48
2016-11-13T02:36:28.243Z,84.39
2016-11-13T02:37:28.252Z,84.39
2016-11-13T02:38:28.271Z,84.48
2016-11-13T02:39:28.280Z,84.48
2016-11-13T02:40:28.291Z,84.39
2016-11-13T02:41:28.307Z,84.39
2016-11-13T02:42:28.308Z,84.39
2016-11-13T02:43:28.317Z,84.39
2016-11-13T02:44:28.333Z,84.39
2016-11-13T02:45:28.350Z,84.29
2016-11-13T02:46:28.356Z,84.39
2016-11-13T02:47:28.370Z,84.48
2016-11-13T02:48:28.385Z,84.48
2016-11-13T02:49:28.392Z,84.48
2016-11-13T02:50:28.411Z,84.58
2016-11-13T02:51:28.416Z,84.58
2016-11-13T02:52:28.425Z,84.58
2016-11-13T02:53:28.435Z,84.48
2016-11-13T02:54:28.444Z,84.48
2016-11-13T02:55:28.464Z,84.48
2016-11-13T02:56:28.472Z,84.48
2016-11-13T02:57:28.491Z,84.48
2016-11-13T02:58:28.499Z,84.48
2016-11-13T02:59:28.510Z,84.48
2016-11-13T03:00:28.515Z,84.58
2016-11-13T03:01:28.537Z,84.58
2016-11-13T03:02:28.547Z,84.63
2016-11-13T03:03:28.552Z,84.63
2016-11-13T03:04:28.562Z,84.72
2016-11-13T03:05:28.580Z,84.81
2016-11-13T03:06:28.587Z,84.81
2016-11-13T03:07:28.605Z,84.81
2016-11-13T03:08:28.610Z,85
2016-11-13T03:09:28.616Z,85.1
2016-11-13T03:10:28.632Z,85.1
2016-11-13T03:11:28.646Z,85.1
2016-11-13T03:12:28.655Z,85.1
2016-11-13T03:13:28.676Z,85.1
2016-11-13T03:14:28.680Z,85.1
2016-11-13T03:15:28.690Z,85.1
2016-11-13T03:16:29.020Z,85.1
2016-11-13T03:17:28.715Z,85.1
2016-11-13T03:18:28.728Z,85.28
2016-11-13T03:19:28.742Z,85.38
2016-11-13T03:20:28.748Z,85.47
2016-11-13T03:21:28.763Z,85.57
2016-11-13T03:22:28.778Z,85.47
2016-11-13T03:23:28.781Z,85.57
2016-11-13T03:24:28.798Z,85.57
2016-11-13T03:25:28.811Z,85.57
2016-11-13T03:26:28.815Z,85.57
2016-11-13T03:27:28.828Z,85.57
2016-11-13T03:28:28.846Z,85.57
2016-11-13T03:29:28.856Z,85.57
2016-11-13T03:30:28.863Z,85.47
2016-11-13T03:31:28.880Z,85.47
2016-11-13T03:32:28.886Z,85.47
2016-11-13T03:33:28.906Z,85.57
2016-11-13T03:34:28.909Z,85.57
2016-11-13T03:35:28.930Z,85.57
2016-11-13T03:36:28.934Z,85.38
2016-11-13T03:37:28.948Z,85.19
2016-11-13T03:38:28.963Z,85.19
2016-11-13T03:39:28.964Z,85.19
2016-11-13T03:40:28.979Z,85.28
2016-11-13T03:41:28.984Z,85.28
2016-11-13T03:42:29.008Z,85.19
2016-11-13T03:43:29.024Z,85.19
2016-11-13T03:44:29.026Z,85.1
2016-11-13T03:45:29.044Z,85.1
2016-11-13T03:46:29.054Z,85.1
2016-11-13T03:47:29.058Z,85.19
2016-11-13T03:48:29.074Z,85.19
2016-11-13T03:49:29.091Z,85.19
2016-11-13T03:50:29.105Z,85.1
2016-11-13T03:51:29.109Z,85.19
2016-11-13T03:52:29.115Z,85.19
2016-11-13T03:53:29.128Z,85.1
2016-11-13T03:54:29.144Z,85.1
2016-11-13T03:55:29.149Z,85.1
2016-11-13T03:56:29.171Z,85
2016-11-13T03:57:29.179Z,84.95
2016-11-13T03:58:29.192Z,84.81
2016-11-13T03:59:29.205Z,84.91
2016-11-13T04:01:29.239Z,85.05
2016-11-13T04:02:29.251Z,85.05
2016-11-13T04:03:29.263Z,85.05
2016-11-13T04:04:29.270Z,85.05
2016-11-13T04:05:29.280Z,85.1
2016-11-13T04:06:29.296Z,85.14
2016-11-13T04:07:29.311Z,85
2016-11-13T04:08:29.310Z,85.1
2016-11-13T04:09:29.326Z,85.19
2016-11-13T04:10:29.348Z,85.19
2016-11-13T04:11:29.349Z,85.28
2016-11-13T04:12:29.358Z,85.28
2016-11-13T04:13:29.371Z,85.38
2016-11-13T04:14:29.380Z,85.38
2016-11-13T04:15:29.399Z,85.28
2016-11-13T04:16:29.407Z,85.47
2016-11-13T04:17:29.418Z,85.57
2016-11-13T04:18:29.433Z,85.57
2016-11-13T04:19:29.441Z,85.57
2016-11-13T04:20:29.451Z,85.57
2016-11-13T04:21:29.464Z,85.57
2016-11-13T04:22:29.472Z,85.57
2016-11-13T04:23:29.490Z,85.66
2016-11-13T04:24:29.499Z,85.66
2016-11-13T04:25:29.511Z,85.76
2016-11-13T04:26:29.526Z,85.85
2016-11-13T04:27:29.531Z,85.95
2016-11-13T04:28:29.548Z,86.04
2016-11-13T04:29:29.563Z,86.23
2016-11-13T04:30:29.571Z,86.23
2016-11-13T04:31:29.583Z,86.14
2016-11-13T04:32:29.591Z,86.23
2016-11-13T04:33:29.605Z,86.23
2016-11-13T04:34:29.615Z,86.23
2016-11-13T04:35:29.627Z,86.23
2016-11-13T04:36:29.713Z,86.14
2016-11-13T04:37:29.650Z,86.23
2016-11-13T04:38:29.656Z,86.33
2016-11-13T04:39:29.681Z,86.33
2016-11-13T04:40:29.686Z,86.33
2016-11-13T04:41:29.697Z,86.33
2016-11-13T04:42:29.708Z,86.42
2016-11-13T04:43:29.723Z,86.42
2016-11-13T04:44:29.736Z,86.52
2016-11-13T04:45:29.739Z,86.61
2016-11-13T04:46:29.759Z,86.71
2016-11-13T04:47:29.804Z,86.61
2016-11-13T04:48:29.771Z,86.61
2016-11-13T04:49:29.787Z,86.61
2016-11-13T04:50:29.853Z,86.61
2016-11-13T04:51:29.841Z,86.61
2016-11-13T04:52:29.817Z,86.61
2016-11-13T04:53:29.835Z,86.52
2016-11-13T04:54:29.848Z,86.52
2016-11-13T04:55:29.856Z,86.52
2016-11-13T04:56:29.868Z,86.61
2016-11-13T04:57:29.959Z,86.61
2016-11-13T04:58:29.890Z,86.71
2016-11-13T04:59:29.907Z,86.71
2016-11-13T05:00:29.919Z,86.52
2016-11-13T05:01:29.924Z,86.61
2016-11-13T05:02:29.933Z,86.71
2016-11-13T05:03:29.947Z,86.8
2016-11-13T05:04:29.963Z,86.8
2016-11-13T05:05:29.974Z,86.8
2016-11-13T05:06:29.984Z,86.8
2016-11-13T05:07:29.999Z,86.99
2016-11-13T05:08:30.005Z,86.99
2016-11-13T05:09:30.018Z,86.9
2016-11-13T05:10:30.024Z,86.9
2016-11-13T05:11:30.039Z,86.8
2016-11-13T05:12:30.048Z,86.8
2016-11-13T05:13:30.066Z,86.8
2016-11-13T05:14:30.076Z,86.8
2016-11-13T05:15:30.082Z,86.9
2016-11-13T05:16:30.095Z,86.9
2016-11-13T05:17:30.110Z,86.99
2016-11-13T05:18:30.117Z,86.99
2016-11-13T05:19:30.222Z,86.9
2016-11-13T05:20:30.136Z,86.8
2016-11-13T05:21:30.154Z,86.8
2016-11-13T05:22:30.167Z,86.8
2016-11-13T05:23:30.174Z,86.71
2016-11-13T05:24:30.190Z,86.71
2016-11-13T05:25:30.206Z,86.71
2016-11-13T05:26:30.212Z,86.61
2016-11-13T05:27:30.221Z,86.52
2016-11-13T05:28:30.231Z,86.42
2016-11-13T05:29:30.244Z,86.42
2016-11-13T05:30:30.259Z,86.52
2016-11-13T05:31:30.272Z,86.61
2016-11-13T05:32:30.281Z,86.61
2016-11-13T05:33:30.293Z,86.61
2016-11-13T05:34:30.304Z,86.61
2016-11-13T05:35:30.312Z,86.61
2016-11-13T05:36:30.318Z,86.52
2016-11-13T05:37:30.336Z,86.42
2016-11-13T05:38:30.345Z,86.42
2016-11-13T05:39:30.359Z,86.42
2016-11-13T05:40:30.372Z,86.42
2016-11-13T05:41:30.376Z,86.42
2016-11-13T05:42:30.393Z,86.42
2016-11-13T05:43:30.401Z,86.52
2016-11-13T05:44:30.413Z,86.61
2016-11-13T05:45:30.453Z,86.61
2016-11-13T05:46:30.433Z,86.71
2016-11-13T05:47:30.444Z,86.8
2016-11-13T05:48:30.494Z,86.9
2016-11-13T05:49:30.470Z,86.8
2016-11-13T05:50:30.475Z,86.9
2016-11-13T05:51:30.498Z,86.9
2016-11-13T05:52:30.511Z,86.99
2016-11-13T05:53:30.516Z,87.08
2016-11-13T05:54:30.522Z,87.18
2016-11-13T05:55:30.535Z,87.18
2016-11-13T05:56:30.550Z,87.37
2016-11-13T05:57:30.555Z,87.46
2016-11-13T05:58:30.567Z,87.46
2016-11-13T05:59:30.576Z,87.37
2016-11-13T06:00:30.588Z,87.37
2016-11-13T06:01:30.596Z,87.37
2016-11-13T06:02:30.615Z,87.46
2016-11-13T06:03:30.618Z,87.55
2016-11-13T06:04:30.636Z,87.55
2016-11-13T06:05:30.642Z,87.55
2016-11-13T06:06:30.661Z,87.46
2016-11-13T06:07:30.661Z,87.46
2016-11-13T06:08:30.679Z,87.55
2016-11-13T06:09:30.689Z,87.65
2016-11-13T06:10:30.701Z,87.74
2016-11-13T06:11:30.717Z,87.74
2016-11-13T06:12:30.727Z,87.84
2016-11-13T06:13:30.729Z,87.84
2016-11-13T06:14:30.744Z,87.84
2016-11-13T06:15:30.759Z,87.84
2016-11-13T06:16:30.769Z,87.84
2016-11-13T06:17:30.777Z,87.84
2016-11-13T06:18:30.793Z,87.84
2016-11-13T06:19:30.801Z,87.84
2016-11-13T06:20:30.811Z,87.84
2016-11-13T06:21:30.828Z,87.84
2016-11-13T06:22:30.831Z,87.84
2016-11-13T06:23:30.848Z,87.93
2016-11-13T06:24:30.852Z,87.84
2016-11-13T06:25:30.865Z,87.84
2016-11-13T06:26:30.881Z,87.84
2016-11-13T06:27:30.893Z,87.84
2016-11-13T06:28:30.904Z,87.74
2016-11-13T06:29:30.909Z,87.65
2016-11-13T06:30:30.928Z,87.65
2016-11-13T06:31:30.928Z,87.55
2016-11-13T06:32:30.940Z,87.55
2016-11-13T06:33:30.959Z,87.55
2016-11-13T06:34:30.967Z,87.55
2016-11-13T06:35:30.974Z,87.55
2016-11-13T06:36:30.983Z,87.55
2016-11-13T06:37:30.999Z,87.55
2016-11-13T06:38:31.006Z,87.65
2016-11-13T06:39:31.018Z,87.74
2016-11-13T06:40:31.032Z,87.65
2016-11-13T06:41:31.040Z,87.65
2016-11-13T06:42:31.051Z,87.65
2016-11-13T06:43:31.068Z,87.65
2016-11-13T06:44:31.076Z,87.65
2016-11-13T06:45:31.126Z,87.55
2016-11-13T06:46:31.096Z,87.65
2016-11-13T06:47:31.107Z,87.74
2016-11-13T06:48:31.118Z,87.74
2016-11-13T06:49:31.135Z,87.74
2016-11-13T06:50:31.144Z,87.74
2016-11-13T06:51:31.162Z,87.65
2016-11-13T06:52:31.160Z,87.55
2016-11-13T06:53:31.173Z,87.46
2016-11-13T06:54:31.180Z,87.55
2016-11-13T06:55:31.202Z,87.55
2016-11-13T06:56:31.207Z,87.46
2016-11-13T06:57:31.220Z,87.46
2016-11-13T06:58:31.235Z,87.46
2016-11-13T06:59:31.242Z,87.46
2016-11-13T07:00:31.252Z,87.37
2016-11-13T07:01:31.270Z,87.37
2016-11-13T07:02:31.272Z,87.27
2016-11-13T07:03:31.302Z,87.27
2016-11-13T07:04:31.299Z,87.27
2016-11-13T07:05:31.315Z,87.18
2016-11-13T07:06:31.320Z,87.08
2016-11-13T07:07:31.330Z,87.08
2016-11-13T07:08:31.349Z,86.99
2016-11-13T07:09:31.354Z,86.9
2016-11-13T07:10:31.365Z,86.8
2016-11-13T07:11:31.381Z,86.71
2016-11-13T07:12:31.387Z,86.71
2016-11-13T07:13:31.399Z,86.61
2016-11-13T07:14:31.409Z,86.52
2016-11-13T07:15:31.420Z,86.42
2016-11-13T07:16:31.435Z,86.33
2016-11-13T07:17:31.441Z,86.33
2016-11-13T07:18:31.457Z,86.23
2016-11-13T07:19:31.465Z,86.04
2016-11-13T07:20:31.480Z,85.95
2016-11-13T07:21:31.493Z,85.99
2016-11-13T07:22:31.494Z,85.9
2016-11-13T07:23:31.517Z,85.8
2016-11-13T07:24:31.519Z,85.71
2016-11-13T07:25:31.529Z,85.71
2016-11-13T07:26:31.548Z,85.8
2016-11-13T07:27:31.554Z,85.71
2016-11-13T07:28:31.571Z,85.71
2016-11-13T07:29:31.577Z,85.71
2016-11-13T07:30:31.586Z,85.61
2016-11-13T07:31:31.602Z,85.61
2016-11-13T07:32:31.615Z,85.42
2016-11-13T07:33:31.624Z,85.33
2016-11-13T07:34:31.630Z,85.33
2016-11-13T07:35:31.653Z,85.33
2016-11-13T07:36:31.650Z,85.24
2016-11-13T07:37:31.678Z,85.24
2016-11-13T07:38:31.683Z,85.24
2016-11-13T07:39:31.698Z,85.05
2016-11-13T07:40:31.707Z,84.77
2016-11-13T07:41:31.716Z,84.58
2016-11-13T07:42:31.724Z,84.58
2016-11-13T07:43:31.746Z,84.39
2016-11-13T07:44:31.751Z,84.1
2016-11-13T07:45:31.757Z,84.01
2016-11-13T07:46:31.777Z,83.82
2016-11-13T07:47:31.789Z,83.82
2016-11-13T07:48:31.794Z,83.91
2016-11-13T07:49:31.816Z,83.82
2016-11-13T07:50:31.826Z,83.91
2016-11-13T07:51:31.827Z,83.91
2016-11-13T07:52:31.844Z,83.91
2016-11-13T07:53:31.856Z,83.72
2016-11-13T07:54:31.875Z,83.63
2016-11-13T07:55:31.874Z,83.53
2016-11-13T07:56:31.887Z,83.53
2016-11-13T07:57:31.909Z,83.72
2016-11-13T07:58:31.947Z,83.72
2016-11-13T07:59:31.924Z,83.53
2016-11-13T08:00:31.932Z,83.34
2016-11-13T08:01:31.949Z,83.34
2016-11-13T08:02:31.965Z,83.44
2016-11-13T08:03:31.971Z,83.53
2016-11-13T08:04:31.984Z,83.63
2016-11-13T08:05:32.000Z,83.63
2016-11-13T08:06:32.010Z,83.44
2016-11-13T08:07:32.020Z,83.34
2016-11-13T08:08:32.031Z,83.15
2016-11-13T08:09:32.039Z,83.15
2016-11-13T08:10:32.054Z,83.15
2016-11-13T08:11:32.070Z,83.06
2016-11-13T08:12:32.076Z,83.06
2016-11-13T08:13:32.088Z,82.97
2016-11-13T08:14:32.106Z,82.87
2016-11-13T08:15:32.115Z,82.87
2016-11-13T08:16:32.128Z,82.87
2016-11-13T08:17:32.140Z,82.59
2016-11-13T08:18:32.152Z,82.5
2016-11-13T08:19:32.158Z,82.5
2016-11-13T08:20:32.171Z,82.59
2016-11-13T08:21:32.184Z,82.4
2016-11-13T08:22:32.199Z,82.31
2016-11-13T08:23:32.202Z,82.5
2016-11-13T08:24:32.216Z,82.59
2016-11-13T08:25:32.229Z,82.59
2016-11-13T08:26:32.242Z,82.5
2016-11-13T08:27:32.508Z,82.4
2016-11-13T08:28:32.270Z,82.31
2016-11-13T08:29:32.278Z,82.4
2016-11-13T08:30:32.293Z,82.31
2016-11-13T08:31:32.299Z,82.34
2016-11-13T08:32:32.316Z,82.34
2016-11-13T08:33:32.327Z,82.25
2016-11-13T08:34:32.335Z,82.15
2016-11-13T08:35:32.350Z,82.15
2016-11-13T08:36:32.363Z,82.15
2016-11-13T08:37:32.370Z,82.25
2016-11-13T08:38:32.384Z,82.34
2016-11-13T08:39:32.397Z,82.34
2016-11-13T08:40:32.407Z,82.25
2016-11-13T08:41:32.424Z,82.25
2016-11-13T08:42:32.431Z,82.15
2016-11-13T08:43:32.447Z,82.15
2016-11-13T08:44:32.455Z,81.96
2016-11-13T08:45:32.465Z,81.96
2016-11-13T08:46:32.479Z,81.96
2016-11-13T08:47:32.573Z,81.96
2016-11-13T08:48:32.509Z,81.87
2016-11-13T08:49:32.519Z,81.87
2016-11-13T08:50:32.532Z,81.87
2016-11-13T08:51:32.541Z,81.77
2016-11-13T08:52:32.555Z,81.77
2016-11-13T08:53:32.564Z,81.68
2016-11-13T08:54:32.946Z,81.68
2016-11-13T08:55:32.588Z,81.68
2016-11-13T08:56:32.598Z,81.59
2016-11-13T08:57:32.609Z,81.49
2016-11-13T08:58:32.626Z,81.49
2016-11-13T08:59:32.637Z,81.49
2016-11-13T09:00:32.653Z,81.49
2016-11-13T09:01:32.661Z,81.59
2016-11-13T09:02:32.674Z,81.49
2016-11-13T09:03:32.684Z,81.3
2016-11-13T09:04:32.701Z,81.12
2016-11-13T09:05:32.705Z,81.02
2016-11-13T09:06:32.717Z,80.93
2016-11-13T09:07:32.733Z,81.21
2016-11-13T09:08:32.741Z,81.12
2016-11-13T09:09:32.756Z,81.12
2016-11-13T09:10:32.766Z,81.12
2016-11-13T09:11:32.782Z,81.21
2016-11-13T09:12:32.788Z,81.21
2016-11-13T09:13:32.805Z,81.12
2016-11-13T09:14:32.819Z,81.12
2016-11-13T09:15:32.828Z,80.93
2016-11-13T09:16:32.843Z,80.93
2016-11-13T09:17:32.858Z,80.93
2016-11-13T09:18:32.863Z,81.02
2016-11-13T09:19:32.883Z,81.02
2016-11-13T09:20:32.896Z,80.93
2016-11-13T09:21:32.904Z,80.93
2016-11-13T09:22:32.912Z,80.93
2016-11-13T09:23:32.926Z,80.74
2016-11-13T09:24:32.936Z,80.45
2016-11-13T09:25:32.960Z,80.17
2016-11-13T09:26:32.972Z,80.26
2016-11-13T09:27:32.983Z,80.26
2016-11-13T09:28:32.983Z,80.36
2016-11-13T09:29:33.006Z,80.26
2016-11-13T09:30:33.008Z,80.17
2016-11-13T09:31:33.023Z,79.98
2016-11-13T09:32:33.048Z,79.88
2016-11-13T09:33:33.047Z,79.74
2016-11-13T09:34:33.066Z,79.74
2016-11-13T09:35:33.079Z,79.83
2016-11-13T09:36:33.087Z,79.93
2016-11-13T09:37:33.107Z,79.93
2016-11-13T09:38:33.113Z,79.93
2016-11-13T09:39:33.123Z,79.74
2016-11-13T09:40:33.138Z,79.55
2016-11-13T09:41:33.153Z,79.45
2016-11-13T09:42:33.164Z,79.55
2016-11-13T09:43:33.178Z,79.55
2016-11-13T09:44:33.186Z,79.36
2016-11-13T09:45:33.201Z,79.17
2016-11-13T09:46:33.209Z,79.07
2016-11-13T09:47:33.230Z,78.88
2016-11-13T09:48:33.239Z,78.88
2016-11-13T09:49:33.251Z,78.88
2016-11-13T09:50:33.258Z,78.98
2016-11-13T09:51:33.369Z,79.07
2016-11-13T09:52:33.295Z,78.98
2016-11-13T09:53:33.299Z,78.98
2016-11-13T09:54:33.317Z,78.79
2016-11-13T09:55:33.326Z,78.69
2016-11-13T09:56:33.454Z,78.88
2016-11-13T09:57:33.349Z,78.88
2016-11-13T09:58:33.367Z,78.98
2016-11-13T09:59:33.376Z,78.98
2016-11-13T10:00:33.392Z,78.88
2016-11-13T10:01:33.415Z,78.98
2016-11-13T10:02:33.417Z,78.98
2016-11-13T10:03:33.427Z,78.59
2016-11-13T10:04:33.439Z,78.59
2016-11-13T10:05:33.483Z,78.5
2016-11-13T10:06:33.470Z,78.41
2016-11-13T10:07:33.481Z,78.22
2016-11-13T10:08:33.494Z,78.03
2016-11-13T10:09:33.502Z,78.03
2016-11-13T10:10:33.515Z,78.03
2016-11-13T10:11:33.530Z,78.03
2016-11-13T10:12:33.538Z,78.03
2016-11-13T10:13:33.552Z,77.84
2016-11-13T10:14:33.573Z,77.84
2016-11-13T10:15:33.586Z,77.84
2016-11-13T10:16:33.592Z,77.94
2016-11-13T10:17:33.608Z,77.94
2016-11-13T10:18:33.614Z,78.03
2016-11-13T10:19:33.625Z,78.03
2016-11-13T10:20:33.644Z,77.84
2016-11-13T10:21:33.651Z,77.75
2016-11-13T10:22:33.669Z,77.75
2016-11-13T10:23:33.684Z,77.65
2016-11-13T10:24:33.702Z,77.75
2016-11-13T10:25:33.711Z,77.75
2016-11-13T10:26:33.727Z,77.65
2016-11-13T10:27:33.726Z,77.56
2016-11-13T10:28:33.749Z,77.56
2016-11-13T10:29:33.756Z,77.37
2016-11-13T10:30:33.774Z,77.27
2016-11-13T10:31:33.792Z,77.18
2016-11-13T10:32:33.798Z,77.12
2016-11-13T10:33:33.809Z,77.12
2016-11-13T10:34:33.830Z,77.03
2016-11-13T10:35:33.839Z,76.84
2016-11-13T10:36:33.850Z,76.8
2016-11-13T10:37:33.859Z,77.08
2016-11-13T10:38:33.875Z,77.22
2016-11-13T10:39:33.889Z,77.22
2016-11-13T10:40:33.897Z,77.4
2016-11-13T10:41:33.915Z,77.31
2016-11-13T10:42:33.928Z,77.12
2016-11-13T10:43:33.938Z,76.84
2016-11-13T10:44:33.955Z,76.74
2016-11-13T10:45:33.964Z,76.65
2016-11-13T10:46:33.980Z,76.46
2016-11-13T10:47:33.991Z,76.36
2016-11-13T10:48:34.001Z,76.46
2016-11-13T10:49:34.015Z,76.27
2016-11-13T10:50:34.035Z,76.08
2016-11-13T10:51:34.043Z,75.98
2016-11-13T10:52:34.061Z,75.79
2016-11-13T10:53:34.075Z,75.42
2016-11-13T10:54:34.084Z,75.42
2016-11-13T10:55:34.096Z,75.6
2016-11-13T10:56:34.107Z,75.7
2016-11-13T10:57:34.119Z,75.51
2016-11-13T10:58:34.135Z,75.42
2016-11-13T10:59:34.154Z,75.42
2016-11-13T11:00:34.170Z,75.51
2016-11-13T11:01:34.175Z,75.42
2016-11-13T11:02:34.279Z,75.42
2016-11-13T11:03:34.198Z,75.23
2016-11-13T11:04:34.210Z,75.23
2016-11-13T11:05:34.218Z,75.23
2016-11-13T11:06:34.244Z,75.13
2016-11-13T11:07:34.255Z,75.04
2016-11-13T11:08:34.266Z,74.85
2016-11-13T11:09:34.283Z,74.66
2016-11-13T11:10:34.291Z,74.66
2016-11-13T11:11:34.312Z,74.56
2016-11-13T11:12:34.325Z,74.66
2016-11-13T11:13:34.334Z,74.66
2016-11-13T11:14:34.344Z,74.75
2016-11-13T11:15:34.357Z,74.75
2016-11-13T11:16:34.374Z,74.56
2016-11-13T11:17:34.385Z,74.66
2016-11-13T11:18:34.400Z,74.47
2016-11-13T11:19:34.420Z,74.37
2016-11-13T11:20:34.435Z,74.28
2016-11-13T11:21:34.442Z,74.37
2016-11-13T11:22:34.457Z,74.56
2016-11-13T11:23:34.473Z,74.66
2016-11-13T11:24:34.480Z,74.47
2016-11-13T11:25:34.489Z,74.37
2016-11-13T11:26:34.509Z,74.47
2016-11-13T11:27:34.521Z,74.66
2016-11-13T11:28:34.534Z,74.75
2016-11-13T11:29:34.543Z,75.04
2016-11-13T11:30:34.558Z,74.75
2016-11-13T11:31:34.576Z,74.56
2016-11-13T11:32:34.589Z,74.66
2016-11-13T11:33:34.606Z,74.56
2016-11-13T11:34:34.612Z,74.56
2016-11-13T11:35:34.631Z,74.47
2016-11-13T11:36:34.641Z,74.47
2016-11-13T11:37:34.657Z,74.56
2016-11-13T11:38:34.670Z,74.66
2016-11-13T11:39:34.674Z,74.66
2016-11-13T11:40:34.692Z,74.75
2016-11-13T11:41:34.709Z,74.75
2016-11-13T11:42:34.751Z,74.47
2016-11-13T11:43:34.731Z,74.18
2016-11-13T11:44:34.738Z,74.18
2016-11-13T11:45:34.758Z,74.28
2016-11-13T11:46:34.774Z,74.37
2016-11-13T11:47:34.865Z,74.37
2016-11-13T11:48:34.800Z,74.37
2016-11-13T11:49:34.817Z,74.37
2016-11-13T11:50:34.833Z,73.99
2016-11-13T11:51:34.840Z,73.9
2016-11-13T11:52:34.857Z,73.99
2016-11-13T11:53:34.861Z,73.99
2016-11-13T11:54:34.876Z,73.94
2016-11-13T11:55:34.886Z,73.84
2016-11-13T11:56:34.906Z,73.65
2016-11-13T11:57:34.916Z,73.18
2016-11-13T11:58:34.926Z,72.71
2016-11-13T11:59:34.949Z,72.52
2016-11-13T12:00:34.957Z,72.04
2016-11-13T12:01:34.971Z,71.32
2016-11-13T12:02:34.983Z,70.94
2016-11-13T12:03:34.995Z,70.75
2016-11-13T12:04:35.010Z,70.65
2016-11-13T12:05:35.020Z,70.65
2016-11-13T12:06:35.037Z,70.37
2016-11-13T12:07:35.054Z,70.09
2016-11-13T12:08:35.074Z,70.18
2016-11-13T12:09:35.075Z,69.99
2016-11-13T12:10:35.099Z,70.09
2016-11-13T12:11:35.115Z,70.18
2016-11-13T12:12:35.125Z,70.09
2016-11-13T12:13:35.142Z,70.09
2016-11-13T12:14:35.141Z,69.99
2016-11-13T12:15:35.159Z,70.09
2016-11-13T12:16:35.174Z,70.28
2016-11-13T12:17:35.194Z,70.47
2016-11-13T12:18:35.203Z,70.28
2016-11-13T12:19:35.222Z,70.28
2016-11-13T12:20:35.229Z,70.56
2016-11-13T12:21:35.250Z,70.56
2016-11-13T12:22:35.255Z,70.56
2016-11-13T12:23:35.280Z,70.56
2016-11-13T12:24:35.288Z,70.56
2016-11-13T12:25:35.299Z,70.65
2016-11-13T12:26:35.317Z,70.65
2016-11-13T12:27:35.327Z,70.47
2016-11-13T12:28:35.338Z,70.65
2016-11-13T12:29:35.363Z,70.9
2016-11-13T12:30:35.368Z,71.09
2016-11-13T12:31:35.384Z,71.28
2016-11-13T12:32:35.389Z,71.28
2016-11-13T12:33:35.508Z,71.38
2016-11-13T12:34:35.433Z,71.47
2016-11-13T12:35:35.444Z,71.76
2016-11-13T12:36:35.451Z,72.04
2016-11-13T12:37:35.468Z,72.33
2016-11-13T12:38:35.480Z,72.52
2016-11-13T12:39:35.492Z,72.89
2016-11-13T12:40:35.508Z,73.08
2016-11-13T12:41:35.525Z,73.08
2016-11-13T12:42:35.537Z,73.18
2016-11-13T12:43:35.547Z,73.27
2016-11-13T12:44:35.564Z,73.37
2016-11-13T12:45:35.578Z,73.18
2016-11-13T12:46:35.599Z,73.08
2016-11-13T12:47:35.603Z,72.89
2016-11-13T12:48:35.613Z,73.08
2016-11-13T12:49:35.628Z,73.37
2016-11-13T12:50:35.643Z,73.56
2016-11-13T12:51:35.655Z,73.84
2016-11-13T12:52:35.671Z,74.03
2016-11-13T12:53:35.686Z,74.13
2016-11-13T12:54:35.696Z,74.22
2016-11-13T12:55:35.711Z,74.22
2016-11-13T12:56:35.720Z,74.32